Terminal Aerodrome Forecast
Issued by NWS

Home | Current Version | Previous Version | Text Only | Print | Product List | Glossary On
Versions: 1 2 3 4 5 6 7 8 9 10 11 12
000
FTUS42 TJSJ 031140
TAFKPK
TAF
TKPK 031140Z 0312/0412 06015KT P6SM VCSH FEW020
      TEMPO 0312/0314 BKN017
     FM031400 07016KT P6SM VCSH SCT020 SCT030
     FM032300 07015KT P6SM FEW018
      AMD NOT SKED 0402/0411=

USA.gov is the U.S. government's official web portal to all federal, state and local government web resources and services.